sensor_id;sensor_type;location;lat;lon;timestamp;pressure;altitude;pressure_sealevel;temperature;humidity
12973;BME280;6551;51.056;9.466;2023-04-08T00:02:23;97988.91;;;14.29;54.42
12973;BME280;6551;51.056;9.466;2023-04-08T00:04:49;97992.16;;;14.20;54.52
12973;BME280;6551;51.056;9.466;2023-04-08T00:07:14;97986.59;;;14.21;54.32
12973;BME280;6551;51.056;9.466;2023-04-08T00:09:40;97986.81;;;14.20;54.27
12973;BME280;6551;51.056;9.466;2023-04-08T00:12:06;97983.91;;;13.98;54.11
12973;BME280;6551;51.056;9.466;2023-04-08T00:14:31;97985.53;;;13.99;54.03
12973;BME280;6551;51.056;9.466;2023-04-08T00:16:57;97987.06;;;14.06;54.01
12973;BME280;6551;51.056;9.466;2023-04-08T00:19:25;97982.84;;;14.11;54.22
12973;BME280;6551;51.056;9.466;2023-04-08T00:21:52;97983.19;;;14.14;54.42
12973;BME280;6551;51.056;9.466;2023-04-08T00:24:19;97983.56;;;14.18;54.63
12973;BME280;6551;51.056;9.466;2023-04-08T00:26:46;97978.41;;;14.16;54.26
12973;BME280;6551;51.056;9.466;2023-04-08T00:29:13;97989.47;;;14.20;54.40
12973;BME280;6551;51.056;9.466;2023-04-08T00:31:39;97977.03;;;14.14;54.34
12973;BME280;6551;51.056;9.466;2023-04-08T00:34:04;97982.53;;;14.19;54.50
12973;BME280;6551;51.056;9.466;2023-04-08T00:36:30;97981.44;;;14.08;53.23
12973;BME280;6551;51.056;9.466;2023-04-08T00:38:56;97978.66;;;14.15;53.98
12973;BME280;6551;51.056;9.466;2023-04-08T00:41:23;97981.22;;;14.21;53.79
12973;BME280;6551;51.056;9.466;2023-04-08T00:43:48;97984.38;;;14.18;54.10
12973;BME280;6551;51.056;9.466;2023-04-08T00:46:15;97989.84;;;14.23;53.90
12973;BME280;6551;51.056;9.466;2023-04-08T00:48:41;97980.06;;;14.17;53.82
12973;BME280;6551;51.056;9.466;2023-04-08T00:51:07;97984.13;;;14.20;53.76
12973;BME280;6551;51.056;9.466;2023-04-08T00:53:34;97992.28;;;14.25;54.04
12973;BME280;6551;51.056;9.466;2023-04-08T00:56:00;97984.22;;;14.25;53.96
12973;BME280;6551;51.056;9.466;2023-04-08T00:58:27;97976.09;;;14.20;53.81
12973;BME280;6551;51.056;9.466;2023-04-08T01:01:24;97977.59;;;14.27;54.07
12973;BME280;6551;51.056;9.466;2023-04-08T01:04:32;97975.97;;;14.26;53.89
12973;BME280;6551;51.056;9.466;2023-04-08T01:07:36;97984.50;;;14.35;53.88
12973;BME280;6551;51.056;9.466;2023-04-08T01:10:29;97979.97;;;14.35;53.77
12973;BME280;6551;51.056;9.466;2023-04-08T01:13:00;97984.72;;;14.33;54.07
12973;BME280;6551;51.056;9.466;2023-04-08T01:15:30;97977.75;;;14.32;53.58
12973;BME280;6551;51.056;9.466;2023-04-08T01:17:58;97981.38;;;14.38;53.66
12973;BME280;6551;51.056;9.466;2023-04-08T01:20:26;97979.47;;;14.38;53.50
12973;BME280;6551;51.056;9.466;2023-04-08T01:25:36;97981.59;;;14.36;53.14
12973;BME280;6551;51.056;9.466;2023-04-08T01:28:12;97984.50;;;14.35;52.93
12973;BME280;6551;51.056;9.466;2023-04-08T01:30:40;97983.78;;;14.39;53.30
12973;BME280;6551;51.056;9.466;2023-04-08T01:33:10;97983.22;;;14.37;53.26
12973;BME280;6551;51.056;9.466;2023-04-08T01:35:36;97985.34;;;14.35;53.46
12973;BME280;6551;51.056;9.466;2023-04-08T01:38:05;97986.94;;;14.48;52.84
12973;BME280;6551;51.056;9.466;2023-04-08T01:40:34;97991.25;;;14.49;53.23
12973;BME280;6551;51.056;9.466;2023-04-08T01:43:02;97993.59;;;14.45;53.06
12973;BME280;6551;51.056;9.466;2023-04-08T01:45:30;97987.03;;;14.53;52.86
12973;BME280;6551;51.056;9.466;2023-04-08T01:47:56;97984.34;;;14.53;52.15
12973;BME280;6551;51.056;9.466;2023-04-08T01:50:26;97977.13;;;14.65;52.53
12973;BME280;6551;51.056;9.466;2023-04-08T01:52:54;97980.84;;;14.64;52.46
12973;BME280;6551;51.056;9.466;2023-04-08T01:55:22;97976.66;;;14.68;52.66
12973;BME280;6551;51.056;9.466;2023-04-08T01:57:52;97975.13;;;14.60;52.63
12973;BME280;6551;51.056;9.466;2023-04-08T02:00:27;97986.78;;;14.66;52.86
12973;BME280;6551;51.056;9.466;2023-04-08T02:02:54;97984.69;;;14.68;52.59
12973;BME280;6551;51.056;9.466;2023-04-08T02:05:22;97983.53;;;14.64;52.38
12973;BME280;6551;51.056;9.466;2023-04-08T02:07:49;97979.34;;;14.56;52.87
12973;BME280;6551;51.056;9.466;2023-04-08T02:10:15;97986.56;;;14.68;52.74
12973;BME280;6551;51.056;9.466;2023-04-08T02:12:43;97985.25;;;14.70;52.55
12973;BME280;6551;51.056;9.466;2023-04-08T02:15:11;97979.06;;;14.70;52.40
12973;BME280;6551;51.056;9.466;2023-04-08T02:17:55;97982.56;;;14.82;52.38
12973;BME280;6551;51.056;9.466;2023-04-08T02:20:53;97985.13;;;14.77;52.80
12973;BME280;6551;51.056;9.466;2023-04-08T02:23:25;97980.47;;;14.72;52.71
12973;BME280;6551;51.056;9.466;2023-04-08T02:25:57;97986.44;;;14.74;52.50
12973;BME280;6551;51.056;9.466;2023-04-08T02:28:26;97992.09;;;14.78;52.28
12973;BME280;6551;51.056;9.466;2023-04-08T02:30:56;97985.00;;;14.72;52.27
12973;BME280;6551;51.056;9.466;2023-04-08T02:33:26;97980.75;;;14.59;51.75
12973;BME280;6551;51.056;9.466;2023-04-08T02:35:54;97987.28;;;14.63;52.52
12973;BME280;6551;51.056;9.466;2023-04-08T02:38:21;97987.84;;;14.65;52.49
12973;BME280;6551;51.056;9.466;2023-04-08T02:40:50;97981.28;;;14.73;52.42
12973;BME280;6551;51.056;9.466;2023-04-08T02:43:18;97996.38;;;14.50;51.03
12973;BME280;6551;51.056;9.466;2023-04-08T02:45:46;97986.94;;;14.36;51.10
12973;BME280;6551;51.056;9.466;2023-04-08T02:48:13;97991.25;;;14.37;52.69
12973;BME280;6551;51.056;9.466;2023-04-08T02:50:42;97986.47;;;14.51;52.52
12973;BME280;6551;51.056;9.466;2023-04-08T02:53:10;97993.09;;;14.60;52.70
12973;BME280;6551;51.056;9.466;2023-04-08T02:55:39;97998.56;;;14.53;51.53
12973;BME280;6551;51.056;9.466;2023-04-08T02:58:05;97990.91;;;14.34;50.17
12973;BME280;6551;51.056;9.466;2023-04-08T03:00:31;97997.94;;;13.70;50.49
12973;BME280;6551;51.056;9.466;2023-04-08T03:02:58;97988.31;;;13.28;51.82
12973;BME280;6551;51.056;9.466;2023-04-08T03:05:25;97988.59;;;13.49;53.56
12973;BME280;6551;51.056;9.466;2023-04-08T03:07:53;97995.09;;;13.42;52.57
12973;BME280;6551;51.056;9.466;2023-04-08T03:10:19;97990.53;;;13.31;53.78
12973;BME280;6551;51.056;9.466;2023-04-08T03:12:49;97989.19;;;13.52;54.57
12973;BME280;6551;51.056;9.466;2023-04-08T03:15:15;97999.91;;;13.04;52.96
12973;BME280;6551;51.056;9.466;2023-04-08T03:17:41;97997.81;;;13.06;54.32
12973;BME280;6551;51.056;9.466;2023-04-08T03:20:07;98000.63;;;13.29;55.38
12973;BME280;6551;51.056;9.466;2023-04-08T03:22:35;98001.25;;;13.42;54.29
12973;BME280;6551;51.056;9.466;2023-04-08T03:25:01;98008.75;;;13.52;53.84
12973;BME280;6551;51.056;9.466;2023-04-08T03:27:27;98008.91;;;13.80;54.78
12973;BME280;6551;51.056;9.466;2023-04-08T03:29:54;98004.41;;;14.04;54.52
12973;BME280;6551;51.056;9.466;2023-04-08T03:32:24;98005.34;;;14.21;53.80
12973;BME280;6551;51.056;9.466;2023-04-08T03:34:51;98003.59;;;14.38;53.77
12973;BME280;6551;51.056;9.466;2023-04-08T03:37:18;98006.63;;;14.42;53.15
12973;BME280;6551;51.056;9.466;2023-04-08T03:39:43;98011.06;;;14.48;53.36
12973;BME280;6551;51.056;9.466;2023-04-08T03:42:09;98009.41;;;14.58;52.70
12973;BME280;6551;51.056;9.466;2023-04-08T03:44:35;98008.00;;;14.68;52.83
12973;BME280;6551;51.056;9.466;2023-04-08T03:47:02;98004.47;;;14.79;52.23
12973;BME280;6551;51.056;9.466;2023-04-08T03:49:29;98000.59;;;14.86;51.65
12973;BME280;6551;51.056;9.466;2023-04-08T03:51:55;98003.75;;;14.83;51.64
12973;BME280;6551;51.056;9.466;2023-04-08T03:54:22;98006.88;;;14.92;52.07
12973;BME280;6551;51.056;9.466;2023-04-08T03:56:49;97999.66;;;14.92;51.79
12973;BME280;6551;51.056;9.466;2023-04-08T03:59:15;98005.06;;;14.69;51.01
12973;BME280;6551;51.056;9.466;2023-04-08T04:01:40;97999.69;;;14.69;51.98
12973;BME280;6551;51.056;9.466;2023-04-08T04:04:06;97998.75;;;14.75;51.93
12973;BME280;6551;51.056;9.466;2023-04-08T04:06:32;97999.84;;;14.74;51.97
12973;BME280;6551;51.056;9.466;2023-04-08T04:08:57;97996.66;;;14.77;52.20
12973;BME280;6551;51.056;9.466;2023-04-08T04:11:25;98006.53;;;14.88;51.65
12973;BME280;6551;51.056;9.466;2023-04-08T04:13:51;98004.34;;;14.85;51.56
12973;BME280;6551;51.056;9.466;2023-04-08T04:16:18;98005.53;;;14.66;50.31
12973;BME280;6551;51.056;9.466;2023-04-08T04:18:43;97998.78;;;14.63;50.97
12973;BME280;6551;51.056;9.466;2023-04-08T04:21:09;98001.72;;;14.50;49.57
12973;BME280;6551;51.056;9.466;2023-04-08T04:23:39;98004.75;;;14.66;51.08
12973;BME280;6551;51.056;9.466;2023-04-08T04:26:09;98004.03;;;14.70;51.62
12973;BME280;6551;51.056;9.466;2023-04-08T04:28:35;98010.56;;;14.74;51.73
12973;BME280;6551;51.056;9.466;2023-04-08T04:31:03;98007.03;;;14.85;51.40
12973;BME280;6551;51.056;9.466;2023-04-08T04:33:30;98012.00;;;14.93;51.25
12973;BME280;6551;51.056;9.466;2023-04-08T04:35:56;98016.78;;;14.91;51.36
12973;BME280;6551;51.056;9.466;2023-04-08T04:38:23;98021.81;;;14.88;50.49
12973;BME280;6551;51.056;9.466;2023-04-08T04:40:50;98026.28;;;14.71;49.81
12973;BME280;6551;51.056;9.466;2023-04-08T04:43:16;98030.84;;;14.58;51.48
12973;BME280;6551;51.056;9.466;2023-04-08T04:45:42;98031.91;;;14.46;51.71
12973;BME280;6551;51.056;9.466;2023-04-08T04:48:09;98039.84;;;14.41;51.55
12973;BME280;6551;51.056;9.466;2023-04-08T04:50:36;98039.59;;;14.42;51.44
12973;BME280;6551;51.056;9.466;2023-04-08T04:53:02;98041.88;;;14.27;51.92
12973;BME280;6551;51.056;9.466;2023-04-08T04:55:29;98039.38;;;14.32;52.54
12973;BME280;6551;51.056;9.466;2023-04-08T04:57:55;98034.34;;;14.36;52.58
12973;BME280;6551;51.056;9.466;2023-04-08T05:00:20;98033.66;;;14.40;52.29
12973;BME280;6551;51.056;9.466;2023-04-08T05:02:47;98039.34;;;14.55;52.61
12973;BME280;6551;51.056;9.466;2023-04-08T05:05:13;98037.13;;;14.52;51.89
12973;BME280;6551;51.056;9.466;2023-04-08T05:07:38;98036.19;;;14.58;52.45
12973;BME280;6551;51.056;9.466;2023-04-08T05:10:06;98030.25;;;14.68;51.76
12973;BME280;6551;51.056;9.466;2023-04-08T05:12:32;98051.69;;;14.68;52.27
12973;BME280;6551;51.056;9.466;2023-04-08T05:14:59;98040.63;;;14.76;52.05
12973;BME280;6551;51.056;9.466;2023-04-08T05:17:25;98045.88;;;14.71;51.33
12973;BME280;6551;51.056;9.466;2023-04-08T05:19:52;98053.53;;;14.79;51.70
12973;BME280;6551;51.056;9.466;2023-04-08T05:22:19;98060.31;;;14.82;51.92
12973;BME280;6551;51.056;9.466;2023-04-08T05:24:45;98055.63;;;14.77;51.84
12973;BME280;6551;51.056;9.466;2023-04-08T05:27:10;98063.00;;;14.70;51.69
12973;BME280;6551;51.056;9.466;2023-04-08T05:29:36;98056.13;;;14.62;51.71
12973;BME280;6551;51.056;9.466;2023-04-08T05:32:01;98064.38;;;14.61;51.61
12973;BME280;6551;51.056;9.466;2023-04-08T05:34:27;98061.25;;;14.64;51.59
12973;BME280;6551;51.056;9.466;2023-04-08T05:36:54;98057.28;;;14.55;50.81
12973;BME280;6551;51.056;9.466;2023-04-08T05:39:20;98065.00;;;14.40;51.13
12973;BME280;6551;51.056;9.466;2023-04-08T05:41:46;98072.78;;;14.41;51.98
12973;BME280;6551;51.056;9.466;2023-04-08T05:44:12;98071.75;;;14.42;52.36
12973;BME280;6551;51.056;9.466;2023-04-08T05:46:39;98069.78;;;14.38;51.73
12973;BME280;6551;51.056;9.466;2023-04-08T05:49:05;98072.09;;;14.34;52.31
12973;BME280;6551;51.056;9.466;2023-04-08T05:51:31;98074.88;;;14.39;52.20
12973;BME280;6551;51.056;9.466;2023-04-08T05:53:56;98063.03;;;14.35;52.15
12973;BME280;6551;51.056;9.466;2023-04-08T05:56:23;98076.75;;;14.39;52.01
12973;BME280;6551;51.056;9.466;2023-04-08T05:58:50;98079.06;;;14.47;52.21
12973;BME280;6551;51.056;9.466;2023-04-08T06:01:15;98072.69;;;14.48;52.46
12973;BME280;6551;51.056;9.466;2023-04-08T06:03:42;98072.56;;;14.43;50.76
12973;BME280;6551;51.056;9.466;2023-04-08T06:06:09;98085.97;;;14.54;52.26
12973;BME280;6551;51.056;9.466;2023-04-08T06:08:36;98095.88;;;14.54;52.12
12973;BME280;6551;51.056;9.466;2023-04-08T06:11:02;98087.00;;;14.53;51.34
12973;BME280;6551;51.056;9.466;2023-04-08T06:13:30;98087.59;;;14.55;51.25
12973;BME280;6551;51.056;9.466;2023-04-08T06:15:55;98086.44;;;14.51;51.39
12973;BME280;6551;51.056;9.466;2023-04-08T06:18:22;98088.41;;;14.56;52.34
12973;BME280;6551;51.056;9.466;2023-04-08T06:20:49;98101.34;;;14.59;51.25
12973;BME280;6551;51.056;9.466;2023-04-08T06:23:15;98092.38;;;14.53;51.91
12973;BME280;6551;51.056;9.466;2023-04-08T06:25:41;98097.47;;;14.67;52.17
12973;BME280;6551;51.056;9.466;2023-04-08T06:28:07;98108.56;;;14.70;51.91
12973;BME280;6551;51.056;9.466;2023-04-08T06:30:32;98112.41;;;14.74;51.72
12973;BME280;6551;51.056;9.466;2023-04-08T06:32:58;98107.16;;;14.68;51.62
12973;BME280;6551;51.056;9.466;2023-04-08T06:35:24;98101.69;;;14.62;51.65
12973;BME280;6551;51.056;9.466;2023-04-08T06:37:50;98107.53;;;14.59;51.38
12973;BME280;6551;51.056;9.466;2023-04-08T06:40:15;98112.88;;;14.59;51.75
12973;BME280;6551;51.056;9.466;2023-04-08T06:42:41;98118.13;;;14.54;51.68
12973;BME280;6551;51.056;9.466;2023-04-08T06:45:10;98111.13;;;14.53;50.95
12973;BME280;6551;51.056;9.466;2023-04-08T06:47:36;98123.69;;;14.41;51.86
12973;BME280;6551;51.056;9.466;2023-04-08T06:50:03;98117.19;;;14.49;51.93
12973;BME280;6551;51.056;9.466;2023-04-08T06:52:28;98123.47;;;14.43;51.64
12973;BME280;6551;51.056;9.466;2023-04-08T06:54:55;98123.25;;;14.56;52.20
12973;BME280;6551;51.056;9.466;2023-04-08T06:57:24;98118.22;;;14.48;51.92
12973;BME280;6551;51.056;9.466;2023-04-08T06:59:52;98127.44;;;14.52;52.00
12973;BME280;6551;51.056;9.466;2023-04-08T07:02:19;98129.06;;;14.53;51.76
12973;BME280;6551;51.056;9.466;2023-04-08T07:04:48;98128.03;;;14.54;51.68
12973;BME280;6551;51.056;9.466;2023-04-08T07:07:15;98131.63;;;14.59;52.42
12973;BME280;6551;51.056;9.466;2023-04-08T07:09:41;98129.91;;;14.65;52.50
12973;BME280;6551;51.056;9.466;2023-04-08T07:12:07;98121.72;;;14.72;51.38
12973;BME280;6551;51.056;9.466;2023-04-08T07:14:34;98128.72;;;14.73;50.71
12973;BME280;6551;51.056;9.466;2023-04-08T07:17:00;98137.13;;;14.64;51.57
12973;BME280;6551;51.056;9.466;2023-04-08T07:19:26;98144.34;;;14.76;52.17
12973;BME280;6551;51.056;9.466;2023-04-08T07:21:53;98145.16;;;14.88;51.95
12973;BME280;6551;51.056;9.466;2023-04-08T07:24:19;98156.56;;;14.83;52.03
12973;BME280;6551;51.056;9.466;2023-04-08T07:26:44;98154.97;;;14.82;51.70
12973;BME280;6551;51.056;9.466;2023-04-08T07:29:13;98148.88;;;14.87;52.15
12973;BME280;6551;51.056;9.466;2023-04-08T07:31:44;98156.34;;;14.73;51.79
12973;BME280;6551;51.056;9.466;2023-04-08T07:34:10;98153.63;;;14.50;50.77
12973;BME280;6551;51.056;9.466;2023-04-08T07:36:35;98162.84;;;14.01;51.90
12973;BME280;6551;51.056;9.466;2023-04-08T07:39:03;98166.16;;;13.37;53.97
12973;BME280;6551;51.056;9.466;2023-04-08T07:41:28;98167.47;;;12.42;56.27
12973;BME280;6551;51.056;9.466;2023-04-08T07:43:55;98175.50;;;11.80;58.13
12973;BME280;6551;51.056;9.466;2023-04-08T07:46:21;98164.88;;;11.09;59.46
12973;BME280;6551;51.056;9.466;2023-04-08T07:48:47;98182.00;;;10.69;61.39
12973;BME280;6551;51.056;9.466;2023-04-08T07:51:13;98179.13;;;10.24;62.94
12973;BME280;6551;51.056;9.466;2023-04-08T07:53:40;98189.91;;;10.03;64.49
12973;BME280;6551;51.056;9.466;2023-04-08T07:56:13;98187.00;;;9.85;65.71
12973;BME280;6551;51.056;9.466;2023-04-08T07:58:41;98191.25;;;9.73;66.53
12973;BME280;6551;51.056;9.466;2023-04-08T08:01:21;98191.47;;;9.71;67.19
12973;BME280;6551;51.056;9.466;2023-04-08T08:03:49;98194.72;;;9.67;67.41
12973;BME280;6551;51.056;9.466;2023-04-08T08:06:15;98199.19;;;9.66;67.88
12973;BME280;6551;51.056;9.466;2023-04-08T08:08:41;98195.09;;;9.64;68.07
12973;BME280;6551;51.056;9.466;2023-04-08T08:11:07;98201.25;;;9.64;68.63
12973;BME280;6551;51.056;9.466;2023-04-08T08:13:34;98202.69;;;9.67;68.65
12973;BME280;6551;51.056;9.466;2023-04-08T08:15:59;98201.81;;;9.53;68.96
12973;BME280;6551;51.056;9.466;2023-04-08T08:18:26;98220.00;;;9.43;69.43
12973;BME280;6551;51.056;9.466;2023-04-08T08:20:53;98223.31;;;9.52;69.90
12973;BME280;6551;51.056;9.466;2023-04-08T08:23:18;98220.44;;;9.47;70.32
12973;BME280;6551;51.056;9.466;2023-04-08T08:25:46;98210.41;;;9.49;70.34
12973;BME280;6551;51.056;9.466;2023-04-08T08:28:12;98217.34;;;9.50;70.43
12973;BME280;6551;51.056;9.466;2023-04-08T08:30:38;98221.66;;;9.51;70.99
12973;BME280;6551;51.056;9.466;2023-04-08T08:33:05;98232.50;;;9.49;71.59
12973;BME280;6551;51.056;9.466;2023-04-08T08:35:32;98238.66;;;9.56;71.63
12973;BME280;6551;51.056;9.466;2023-04-08T08:37:58;98240.31;;;9.57;71.60
12973;BME280;6551;51.056;9.466;2023-04-08T08:40:24;98244.63;;;9.65;71.42
12973;BME280;6551;51.056;9.466;2023-04-08T08:42:53;98243.56;;;9.59;71.38
12973;BME280;6551;51.056;9.466;2023-04-08T08:45:20;98249.88;;;9.52;71.66
12973;BME280;6551;51.056;9.466;2023-04-08T08:47:46;98243.69;;;9.38;72.09
12973;BME280;6551;51.056;9.466;2023-04-08T08:50:12;98245.13;;;9.40;72.52
12973;BME280;6551;51.056;9.466;2023-04-08T08:52:37;98251.41;;;9.33;73.12
12973;BME280;6551;51.056;9.466;2023-04-08T08:55:03;98255.72;;;9.34;72.47
12973;BME280;6551;51.056;9.466;2023-04-08T08:57:29;98256.59;;;9.41;72.67
12973;BME280;6551;51.056;9.466;2023-04-08T08:59:57;98258.53;;;9.60;72.67
12973;BME280;6551;51.056;9.466;2023-04-08T09:02:29;98259.56;;;9.66;72.34
12973;BME280;6551;51.056;9.466;2023-04-08T09:05:04;98263.66;;;9.75;72.18
12973;BME280;6551;51.056;9.466;2023-04-08T09:07:34;98276.13;;;9.68;71.81
12973;BME280;6551;51.056;9.466;2023-04-08T09:10:00;98277.97;;;9.67;71.74
12973;BME280;6551;51.056;9.466;2023-04-08T09:12:26;98281.00;;;9.64;71.87
12973;BME280;6551;51.056;9.466;2023-04-08T09:15:09;98277.56;;;9.70;71.75
12973;BME280;6551;51.056;9.466;2023-04-08T09:17:39;98281.63;;;9.66;72.69
12973;BME280;6551;51.056;9.466;2023-04-08T09:20:10;98272.88;;;9.72;72.63
12973;BME280;6551;51.056;9.466;2023-04-08T09:23:01;98276.38;;;9.79;72.94
12973;BME280;6551;51.056;9.466;2023-04-08T09:25:32;98274.56;;;9.86;72.46
12973;BME280;6551;51.056;9.466;2023-04-08T09:27:59;98286.69;;;9.95;72.46
12973;BME280;6551;51.056;9.466;2023-04-08T09:30:26;98284.06;;;10.09;72.11
12973;BME280;6551;51.056;9.466;2023-04-08T09:32:57;98280.00;;;10.19;71.78
12973;BME280;6551;51.056;9.466;2023-04-08T09:35:24;98289.69;;;10.33;71.67
12973;BME280;6551;51.056;9.466;2023-04-08T09:37:50;98287.44;;;10.37;70.83
12973;BME280;6551;51.056;9.466;2023-04-08T09:40:17;98287.03;;;10.53;70.55
12973;BME280;6551;51.056;9.466;2023-04-08T09:42:50;98286.44;;;10.64;70.14
12973;BME280;6551;51.056;9.466;2023-04-08T09:45:20;98288.91;;;10.72;70.09
12973;BME280;6551;51.056;9.466;2023-04-08T09:48:11;98290.16;;;10.89;69.84
12973;BME280;6551;51.056;9.466;2023-04-08T09:50:46;98289.13;;;11.03;69.48
12973;BME280;6551;51.056;9.466;2023-04-08T09:53:29;98290.75;;;11.11;69.15
12973;BME280;6551;51.056;9.466;2023-04-08T09:55:57;98299.78;;;11.10;68.95
12973;BME280;6551;51.056;9.466;2023-04-08T09:58:29;98296.69;;;11.26;68.95
12973;BME280;6551;51.056;9.466;2023-04-08T10:00:58;98299.34;;;11.33;68.80
12973;BME280;6551;51.056;9.466;2023-04-08T10:03:34;98296.66;;;11.46;68.35
12973;BME280;6551;51.056;9.466;2023-04-08T10:06:02;98290.50;;;11.52;68.03
12973;BME280;6551;51.056;9.466;2023-04-08T10:08:30;98300.53;;;11.56;67.27
12973;BME280;6551;51.056;9.466;2023-04-08T10:10:57;98294.34;;;11.62;66.95
12973;BME280;6551;51.056;9.466;2023-04-08T10:13:24;98292.09;;;11.72;67.20
12973;BME280;6551;51.056;9.466;2023-04-08T10:16:21;98281.41;;;11.79;66.81
12973;BME280;6551;51.056;9.466;2023-04-08T10:18:53;98284.28;;;11.78;67.06
12973;BME280;6551;51.056;9.466;2023-04-08T10:23:59;98293.28;;;11.83;66.63
12973;BME280;6551;51.056;9.466;2023-04-08T10:26:41;98296.38;;;11.80;66.38
12973;BME280;6551;51.056;9.466;2023-04-08T10:29:30;98302.34;;;11.76;67.01
12973;BME280;6551;51.056;9.466;2023-04-08T10:31:56;98304.84;;;11.57;67.10
12973;BME280;6551;51.056;9.466;2023-04-08T10:34:25;98307.50;;;11.57;67.99
12973;BME280;6551;51.056;9.466;2023-04-08T10:36:55;98308.34;;;11.45;67.60
12973;BME280;6551;51.056;9.466;2023-04-08T10:39:23;98306.31;;;11.40;67.68
12973;BME280;6551;51.056;9.466;2023-04-08T10:41:51;98310.41;;;11.43;67.73
12973;BME280;6551;51.056;9.466;2023-04-08T10:44:24;98310.59;;;11.54;68.10
12973;BME280;6551;51.056;9.466;2023-04-08T10:46:54;98308.72;;;11.61;68.37
12973;BME280;6551;51.056;9.466;2023-04-08T10:49:20;98296.84;;;11.57;68.02
12973;BME280;6551;51.056;9.466;2023-04-08T10:51:46;98299.50;;;11.57;67.82
12973;BME280;6551;51.056;9.466;2023-04-08T10:54:15;98306.31;;;11.40;67.96
12973;BME280;6551;51.056;9.466;2023-04-08T10:56:53;98305.91;;;11.37;69.07
12973;BME280;6551;51.056;9.466;2023-04-08T10:59:30;98302.13;;;11.64;68.45
12973;BME280;6551;51.056;9.466;2023-04-08T11:01:57;98299.19;;;11.98;67.65
12973;BME280;6551;51.056;9.466;2023-04-08T11:04:25;98303.84;;;12.16;66.77
12973;BME280;6551;51.056;9.466;2023-04-08T11:06:52;98307.25;;;12.29;66.26
12973;BME280;6551;51.056;9.466;2023-04-08T11:09:19;98299.66;;;12.58;65.82
12973;BME280;6551;51.056;9.466;2023-04-08T11:11:45;98303.16;;;11.83;66.97
12973;BME280;6551;51.056;9.466;2023-04-08T11:14:13;98305.84;;;11.76;68.02
12973;BME280;6551;51.056;9.466;2023-04-08T11:16:39;98315.69;;;11.62;68.13
12973;BME280;6551;51.056;9.466;2023-04-08T11:19:07;98316.53;;;11.63;68.46
12973;BME280;6551;51.056;9.466;2023-04-08T11:21:37;98324.13;;;11.53;68.66
12973;BME280;6551;51.056;9.466;2023-04-08T11:24:09;98320.44;;;11.47;68.98
12973;BME280;6551;51.056;9.466;2023-04-08T11:26:37;98316.16;;;11.40;69.70
12973;BME280;6551;51.056;9.466;2023-04-08T11:29:05;98320.63;;;11.52;69.82
12973;BME280;6551;51.056;9.466;2023-04-08T11:31:37;98320.63;;;11.52;69.88
12973;BME280;6551;51.056;9.466;2023-04-08T11:34:04;98317.31;;;11.63;69.21
12973;BME280;6551;51.056;9.466;2023-04-08T11:36:30;98319.59;;;11.60;68.96
12973;BME280;6551;51.056;9.466;2023-04-08T11:38:56;98326.38;;;11.56;68.87
12973;BME280;6551;51.056;9.466;2023-04-08T11:41:23;98317.13;;;11.58;68.92
12973;BME280;6551;51.056;9.466;2023-04-08T11:43:54;98311.19;;;11.69;69.18
12973;BME280;6551;51.056;9.466;2023-04-08T11:46:23;98308.69;;;11.74;69.76
12973;BME280;6551;51.056;9.466;2023-04-08T11:49:06;98308.44;;;11.96;68.77
12973;BME280;6551;51.056;9.466;2023-04-08T11:51:37;98305.88;;;12.14;68.33
12973;BME280;6551;51.056;9.466;2023-04-08T11:54:30;98299.06;;;12.56;68.27
12973;BME280;6551;51.056;9.466;2023-04-08T11:56:57;98301.06;;;12.91;66.20
12973;BME280;6551;51.056;9.466;2023-04-08T11:59:25;98291.72;;;13.32;64.92
12973;BME280;6551;51.056;9.466;2023-04-08T12:01:52;98288.91;;;13.81;64.78
12973;BME280;6551;51.056;9.466;2023-04-08T12:04:19;98289.47;;;14.38;62.89
12973;BME280;6551;51.056;9.466;2023-04-08T12:06:45;98294.56;;;14.69;60.53
12973;BME280;6551;51.056;9.466;2023-04-08T12:09:12;98299.63;;;15.00;59.73
12973;BME280;6551;51.056;9.466;2023-04-08T12:11:38;98299.41;;;15.13;60.03
12973;BME280;6551;51.056;9.466;2023-04-08T12:14:03;98297.56;;;15.26;58.51
12973;BME280;6551;51.056;9.466;2023-04-08T12:16:29;98297.41;;;14.97;58.30
12973;BME280;6551;51.056;9.466;2023-04-08T12:18:56;98292.53;;;15.06;58.66
12973;BME280;6551;51.056;9.466;2023-04-08T12:21:23;98291.25;;;15.08;59.04
12973;BME280;6551;51.056;9.466;2023-04-08T12:23:50;98295.56;;;15.09;58.34
12973;BME280;6551;51.056;9.466;2023-04-08T12:26:16;98295.91;;;15.01;57.75
12973;BME280;6551;51.056;9.466;2023-04-08T12:28:42;98294.50;;;14.87;59.32
12973;BME280;6551;51.056;9.466;2023-04-08T12:31:11;98294.28;;;15.00;58.98
12973;BME280;6551;51.056;9.466;2023-04-08T12:33:38;98287.38;;;14.93;58.71
12973;BME280;6551;51.056;9.466;2023-04-08T12:36:05;98297.44;;;15.09;58.42
12973;BME280;6551;51.056;9.466;2023-04-08T12:38:30;98289.94;;;14.99;58.31
12973;BME280;6551;51.056;9.466;2023-04-08T12:40:59;98294.97;;;14.96;58.85
12973;BME280;6551;51.056;9.466;2023-04-08T12:43:24;98289.31;;;14.62;59.42
12973;BME280;6551;51.056;9.466;2023-04-08T12:45:51;98294.91;;;14.73;59.16
12973;BME280;6551;51.056;9.466;2023-04-08T12:48:17;98301.66;;;14.63;59.61
12973;BME280;6551;51.056;9.466;2023-04-08T12:50:43;98294.22;;;14.66;60.12
12973;BME280;6551;51.056;9.466;2023-04-08T12:53:09;98287.78;;;14.67;59.48
12973;BME280;6551;51.056;9.466;2023-04-08T12:55:35;98294.19;;;14.54;60.16
12973;BME280;6551;51.056;9.466;2023-04-08T12:58:00;98301.03;;;14.50;60.02
12973;BME280;6551;51.056;9.466;2023-04-08T13:00:26;98302.00;;;14.07;60.98
12973;BME280;6551;51.056;9.466;2023-04-08T13:02:53;98300.69;;;14.46;60.86
12973;BME280;6551;51.056;9.466;2023-04-08T13:05:18;98288.31;;;14.45;60.75
12973;BME280;6551;51.056;9.466;2023-04-08T13:07:45;98294.81;;;14.20;61.01
12973;BME280;6551;51.056;9.466;2023-04-08T13:10:13;98295.31;;;14.46;61.69
12973;BME280;6551;51.056;9.466;2023-04-08T13:12:40;98294.19;;;14.54;61.36
12973;BME280;6551;51.056;9.466;2023-04-08T13:15:06;98294.03;;;14.31;61.27
12973;BME280;6551;51.056;9.466;2023-04-08T13:17:32;98289.84;;;14.23;61.29
12973;BME280;6551;51.056;9.466;2023-04-08T13:19:58;98294.91;;;14.13;61.69
12973;BME280;6551;51.056;9.466;2023-04-08T13:22:24;98288.94;;;14.11;61.64
12973;BME280;6551;51.056;9.466;2023-04-08T13:24:52;98288.09;;;14.29;61.33